Terminal Aerodrome Forecast
Issued by NWS

Home | Current Version | Previous Version | Text Only | Print | Product List | Glossary On
Versions: 1 2 3 4 5 6 7 8 9 10 11 12 13 14 15 16 17 18 19 20
000
FTUS45 KFGZ 282000 AAB
TAFGCN
TAF AMD
KGCN 282052Z 2821/0118 23014G20KT P6SM SCT010 OVC015
      TEMPO 2821/2823 4SM -SHRA BKN005 OVC009
     FM282300 22012G22KT P6SM VCSH SCT020 SCT035 BKN060
      TEMPO 2823/0103 5SM -SHSNRA BR OVC015
     FM010300 22014KT P6SM SCT020 BKN035
     FM010500 20007KT 5SM BR SCT008 OVC025
     FM011500 21007KT 5SM -SHRASN BKN008 OVC012=

USA.gov is the U.S. government's official web portal to all federal, state and local government web resources and services.